Airfield :
LOGIN :

Register | Disclaimer

   EN    FR    IT 

 










Legend :    VFR   Marginal VFR   IFR   Intensive IFR   Very Intensive IFR
Visi :
Ceiling :
>= 8 km
>= 3000ft
5 to 8 km
1000 to 3000 ft
1500m to 5 km
500 to 1000 ft
800 to 1500m
200 to 500 ft
< 800m
< 200 ft
Symbols :   Thunderstorms  Fog  Heavy snow  Heavy precipitations  Wind > 20 kt
SIGMETs :     Misc.  Thunderstorms  Icing  Turbulence  Mountain Waves  Volcanic Ashes







- Airport Elevation : 386 ft
- IATA code : QOE


ETNN - Nörvenich Airforce Base

CURRENT METAR :
  • 240820Z 27008KT 9999 BKN030 BKN140 13/06 Q1017 BLU BLU

EXPIRED METARs :
  • 240720Z 28007KT 9999 SCT060 BKN140 BKN220 12/06 Q1017 BLU BLU
  • 240620Z 26010KT 9999 SCT150 BKN220 11/05 Q1017 BLU+BLU+

TAF TAF ETNN
Valid from the 24 at 08:00 until the 24 at 17:00 UTC


240720Z 2408/2417 26010KT 9999 NSW SCT040 BKN140
BECMG 2410/2412 27010G20KT 9999 NSW BKN030 BKN100 BY ETGL
No reported NOTAMs for that airfield.



MET'MAP, your aeronautical weather chart ! - Copyright ORBIFLY December 2007 - Disclaimer

ORBIFLY MET'MAP TEAM :

Programming & Development : Alexandra Zaïnal
Concept & Development : Baudouin d'Aumeries
Co-Development & Prog : Marc-Olivier Méhu
Technical & hardware support : Manuel Goepfert

Contact : metmap@orbifly.com




SOURCES & CREDITS :

   NOAA